Time;durP1;ratioP1;P1;durP2;ratioP2;P2;SDS_P1;SDS_P2;PMS_P1;PMS_P2;Temp;Humidity;BMP_temperature;BMP_pressure;BME280_temperature;BME280_humidity;BME280_pressure;Samples;Min_cycle;Max_cycle;Signal;HPM_P1;HPM_P2
2023/02/03 00:01:43;;;;;;;6.30;1.60;;;9.10;99.90;;;;;;5033068;28;20037;-92
2023/02/03 00:04:09;;;;;;;8.27;1.73;;;9.00;99.90;;;;;;5015841;28;20422;-93
2023/02/03 00:06:35;;;;;;;6.30;1.45;;;9.00;99.90;;;;;;5015406;28;20025;-90
2023/02/03 00:09:01;;;;;;;11.75;1.50;;;9.00;99.90;;;;;;5015863;28;20513;-89
2023/02/03 00:11:29;;;;;;;10.15;2.65;;;9.00;99.90;;;;;;5007106;28;20030;-91
2023/02/03 00:13:55;;;;;;;3.92;1.20;;;9.00;99.90;;;;;;5033220;28;20036;-90
2023/02/03 00:16:21;;;;;;;4.30;1.38;;;9.00;99.90;;;;;;5015585;28;20464;-92
2023/02/03 00:18:46;;;;;;;6.88;1.52;;;9.00;99.90;;;;;;5007313;28;20060;-91
2023/02/03 00:21:14;;;;;;;9.93;1.73;;;9.00;99.90;;;;;;5015660;28;20402;-90
2023/02/03 00:23:40;;;;;;;6.78;1.90;;;9.00;99.90;;;;;;5015600;28;20018;-91
2023/02/03 00:26:11;;;;;;;5.95;1.27;;;9.00;99.90;;;;;;5007033;28;20108;-90
2023/02/03 00:28:37;;;;;;;9.48;1.20;;;9.00;99.90;;;;;;5009903;28;20013;-91
2023/02/03 00:31:03;;;;;;;13.10;2.80;;;9.00;99.90;;;;;;5010040;28;20114;-91
2023/02/03 00:33:29;;;;;;;6.63;1.50;;;9.00;99.90;;;;;;5012705;28;20018;-91
2023/02/03 00:35:54;;;;;;;6.55;1.50;;;9.00;99.90;;;;;;5040881;28;20482;-91
2023/02/03 00:38:20;;;;;;;8.23;2.22;;;9.10;99.90;;;;;;5020344;28;20028;-92
2023/02/03 00:40:53;;;;;;;4.30;1.77;;;9.00;99.90;;;;;;5032872;28;20115;-92
2023/02/03 00:43:19;;;;;;;6.03;1.80;;;9.10;99.90;;;;;;5007184;28;20022;-91
2023/02/03 00:45:45;;;;;;;2.85;1.20;;;9.10;99.90;;;;;;5015866;28;20085;-93
2023/02/03 00:48:10;;;;;;;5.40;1.23;;;9.10;99.90;;;;;;5033291;28;20112;-93
2023/02/03 00:50:36;;;;;;;5.55;1.40;;;9.10;99.90;;;;;;5015212;28;20057;-90
2023/02/03 00:53:02;;;;;;;6.10;1.85;;;9.10;99.90;;;;;;5007121;28;20148;-90
2023/02/03 00:55:27;;;;;;;7.68;2.13;;;9.10;99.90;;;;;;5015239;28;20047;-90
2023/02/03 00:57:53;;;;;;;6.45;1.83;;;9.10;99.90;;;;;;5033854;28;20025;-91
2023/02/03 01:00:19;;;;;;;3.42;1.92;;;9.20;99.90;;;;;;5010017;28;20049;-92
2023/02/03 01:02:45;;;;;;;6.28;1.85;;;9.20;99.90;;;;;;5006203;28;20580;-91
2023/02/03 01:05:11;;;;;;;3.40;1.30;;;9.20;99.90;;;;;;5006894;28;20026;-92
2023/02/03 01:07:37;;;;;;;7.07;1.90;;;9.20;99.90;;;;;;5006976;28;20025;-92
2023/02/03 01:10:04;;;;;;;4.43;1.70;;;9.20;99.90;;;;;;5032273;28;20382;-92
2023/02/03 01:12:30;;;;;;;7.45;1.77;;;9.20;99.90;;;;;;5029382;28;20068;-92
2023/02/03 01:14:56;;;;;;;7.90;1.50;;;9.20;99.90;;;;;;5006379;28;20040;-88
2023/02/03 01:17:22;;;;;;;12.35;2.10;;;9.20;99.90;;;;;;5006423;28;20022;-93
2023/02/03 01:19:49;;;;;;;7.78;1.65;;;9.20;99.90;;;;;;5032221;28;20033;-91
2023/02/03 01:22:15;;;;;;;6.72;1.92;;;9.10;99.90;;;;;;5014668;28;20029;-91
2023/02/03 01:24:40;;;;;;;5.75;1.63;;;9.10;99.90;;;;;;5018270;28;20466;-91
2023/02/03 01:27:06;;;;;;;10.27;2.05;;;9.00;99.90;;;;;;5035940;28;20029;-90
2023/02/03 01:52:16;;;;;;;8.00;2.60;;;8.80;99.90;;;;;;5227975;23;20049;-91
2023/02/03 01:54:45;;;;;;;9.02;2.63;;;8.80;99.90;;;;;;5039464;28;20029;-91
2023/02/03 01:57:38;;;;;;;8.82;2.90;;;8.70;99.90;;;;;;5039306;28;20067;-91
2023/02/03 02:00:05;;;;;;;9.57;2.88;;;8.70;99.90;;;;;;5038884;28;20028;-91
2023/02/03 02:02:31;;;;;;;9.50;3.25;;;8.70;99.90;;;;;;5039106;28;20064;-90
2023/02/03 02:05:13;;;;;;;14.20;5.25;;;8.70;99.90;;;;;;5057028;28;20025;-91
2023/02/03 02:07:40;;;;;;;9.77;4.70;;;8.70;99.90;;;;;;5039404;28;20021;-91
2023/02/03 02:10:06;;;;;;;12.68;4.43;;;8.70;99.90;;;;;;5057132;28;20450;-92
2023/02/03 02:12:31;;;;;;;9.80;4.93;;;8.70;99.90;;;;;;5056798;28;20040;-92
2023/02/03 02:14:58;;;;;;;13.15;5.47;;;8.70;99.90;;;;;;5038654;28;20017;-91
2023/02/03 02:18:01;;;;;;;10.77;5.00;;;8.70;99.90;;;;;;5038730;28;20393;-91
2023/02/03 02:20:41;;;;;;;11.15;5.13;;;8.70;99.90;;;;;;5038912;28;20104;-91
2023/02/03 02:23:56;;;;;;;9.07;4.53;;;8.70;99.90;;;;;;5056360;28;20025;-91
2023/02/03 02:27:00;;;;;;;8.98;4.40;;;8.70;99.90;;;;;;5038654;28;20032;-91
2023/02/03 02:29:59;;;;;;;7.95;5.10;;;8.70;99.90;;;;;;5038802;28;20040;-90
2023/02/03 02:32:52;;;;;;;10.90;5.65;;;8.70;99.90;;;;;;5044506;28;20041;-92
2023/02/03 02:35:18;;;;;;;12.02;5.47;;;8.70;99.90;;;;;;5038220;28;20017;-91
2023/02/03 02:37:43;;;;;;;8.18;5.70;;;8.70;99.90;;;;;;5038229;28;20029;-91
2023/02/03 02:40:09;;;;;;;9.88;6.03;;;8.70;99.90;;;;;;5056073;28;20032;-90
2023/02/03 02:43:05;;;;;;;10.75;5.43;;;8.70;99.90;;;;;;5038344;28;20033;-91
2023/02/03 02:45:56;;;;;;;8.23;4.85;;;8.70;99.90;;;;;;5056143;28;20492;-90
2023/02/03 02:48:27;;;;;;;;;;;8.70;99.90;;;;;;5038633;28;20125;-90
2023/02/03 02:50:56;;;;;;;8.50;3.55;;;8.70;99.90;;;;;;5038013;28;19913;-90
2023/02/03 02:53:27;;;;;;;8.35;2.97;;;8.80;99.90;;;;;;5037755;28;20090;-90
2023/02/03 02:55:55;;;;;;;9.13;2.65;;;8.80;99.90;;;;;;5038093;28;20028;-88
2023/02/03 02:58:23;;;;;;;8.70;2.88;;;8.80;99.90;;;;;;5037482;28;20375;-90
2023/02/03 03:00:49;;;;;;;14.35;2.47;;;8.90;99.90;;;;;;5037944;28;20116;-91
2023/02/03 03:03:20;;;;;;;10.00;3.25;;;8.90;99.90;;;;;;5055467;28;20064;-90
2023/02/03 03:06:07;;;;;;;7.78;2.60;;;8.90;99.90;;;;;;5037551;28;20031;-91
2023/02/03 03:08:59;;;;;;;15.80;3.65;;;8.90;99.90;;;;;;5055666;28;20021;-90
2023/02/03 03:11:28;;;;;;;10.15;2.85;;;8.90;99.90;;;;;;5037501;28;20044;-90
2023/02/03 03:13:55;;;;;;;16.30;3.50;;;8.90;99.90;;;;;;5055423;28;20029;-91
2023/02/03 03:16:26;;;;;;;10.73;2.70;;;8.80;99.90;;;;;;5037724;28;20025;-91
2023/02/03 03:19:11;;;;;;;7.03;2.40;;;8.80;99.90;;;;;;5037693;28;20021;-90
2023/02/03 03:21:46;;;;;;;9.88;2.70;;;8.80;99.90;;;;;;5036811;28;20025;-90
2023/02/03 03:24:16;;;;;;;10.10;3.15;;;8.80;99.90;;;;;;5054065;28;20028;-91
2023/02/03 03:26:56;;;;;;;11.18;2.95;;;8.80;99.90;;;;;;5054118;28;20032;-91
2023/02/03 03:29:30;;;;;;;10.27;3.30;;;8.80;99.90;;;;;;5053851;28;20029;-90
2023/02/03 03:31:56;;;;;;;8.25;3.00;;;8.80;99.90;;;;;;5036271;28;20191;-90
2023/02/03 03:34:21;;;;;;;17.55;3.72;;;8.70;99.90;;;;;;5036028;28;20025;-90
2023/02/03 03:36:57;;;;;;;7.43;3.25;;;8.70;99.90;;;;;;5054256;28;20032;-90
2023/02/03 03:39:40;;;;;;;12.73;4.05;;;8.70;99.90;;;;;;5037611;28;20079;-90
2023/02/03 03:42:06;;;;;;;10.63;3.55;;;8.70;99.90;;;;;;5055163;28;20017;-90
2023/02/03 03:44:42;;;;;;;11.70;3.78;;;8.70;99.90;;;;;;5037154;28;20033;-90
2023/02/03 03:47:15;;;;;;;8.93;3.10;;;8.70;99.90;;;;;;5054188;28;20056;-90
2023/02/03 03:49:44;;;;;;;13.95;4.18;;;8.60;99.90;;;;;;5036891;28;20021;-91
2023/02/03 03:52:17;;;;;;;9.52;3.22;;;8.60;99.90;;;;;;5036363;28;20044;-91
2023/02/03 03:54:45;;;;;;;9.52;3.20;;;8.60;99.90;;;;;;5054231;28;20021;-91
2023/02/03 03:57:35;;;;;;;10.05;3.20;;;8.60;99.90;;;;;;5036195;28;20063;-91
2023/02/03 04:00:04;;;;;;;7.75;3.03;;;8.60;99.90;;;;;;5036323;28;20033;-90
2023/02/03 04:02:31;;;;;;;13.70;2.95;;;8.60;99.90;;;;;;5036106;28;20035;-90
2023/02/03 04:05:00;;;;;;;8.00;3.42;;;8.60;99.90;;;;;;5036537;28;20045;-90
2023/02/03 04:07:37;;;;;;;7.18;3.17;;;8.60;99.90;;;;;;5036462;28;20027;-90
2023/02/03 04:10:10;;;;;;;9.88;3.25;;;8.60;99.90;;;;;;5054014;28;20021;-91
2023/02/03 04:12:36;;;;;;;4.90;2.47;;;8.60;99.90;;;;;;5054201;28;20025;-90
2023/02/03 04:15:02;;;;;;;8.88;3.60;;;8.50;99.90;;;;;;5055113;28;20029;-90
2023/02/03 04:17:28;;;;;;;5.07;3.00;;;8.50;99.90;;;;;;5036884;28;20179;-89
2023/02/03 04:19:53;;;;;;;6.22;3.50;;;8.50;99.90;;;;;;5053608;28;20029;-90
2023/02/03 04:22:19;;;;;;;7.32;2.85;;;8.50;99.90;;;;;;5035507;28;20025;-91
2023/02/03 04:24:44;;;;;;;8.85;4.18;;;8.50;99.90;;;;;;5035445;28;20116;-90
2023/02/03 04:27:10;;;;;;;11.55;4.68;;;8.50;99.90;;;;;;5035897;28;20490;-88
2023/02/03 04:29:36;;;;;;;10.40;5.03;;;8.50;99.90;;;;;;5035658;28;20032;-91
2023/02/03 04:32:01;;;;;;;7.50;5.13;;;8.50;99.90;;;;;;5035535;28;20132;-87
2023/02/03 04:34:27;;;;;;;6.70;4.70;;;8.50;99.90;;;;;;5035656;28;20120;-91
2023/02/03 04:36:52;;;;;;;9.43;4.88;;;8.50;99.90;;;;;;5035541;28;20036;-90
2023/02/03 04:39:18;;;;;;;9.10;5.82;;;8.50;99.90;;;;;;5035791;28;20021;-90
2023/02/03 04:41:44;;;;;;;9.75;4.68;;;8.50;99.90;;;;;;5019772;28;20056;-91
2023/02/03 04:44:09;;;;;;;8.35;5.50;;;8.50;99.90;;;;;;5035459;28;20025;-90
2023/02/03 04:46:35;;;;;;;8.85;5.00;;;8.50;99.90;;;;;;5052890;28;20025;-90
2023/02/03 04:49:01;;;;;;;9.52;6.57;;;8.50;99.90;;;;;;5035220;28;20120;-90
2023/02/03 04:51:26;;;;;;;12.65;8.13;;;8.50;99.90;;;;;;5034654;28;20556;-91
2023/02/03 04:53:52;;;;;;;12.57;8.45;;;8.50;99.90;;;;;;5053490;28;20021;-90
2023/02/03 04:56:17;;;;;;;14.43;8.55;;;8.50;99.90;;;;;;5035742;28;20359;-90
2023/02/03 04:58:43;;;;;;;17.67;9.25;;;8.50;99.90;;;;;;5052554;28;20017;-89
2023/02/03 05:01:09;;;;;;;13.63;8.32;;;8.50;99.90;;;;;;5035379;28;20028;-89
2023/02/03 05:03:35;;;;;;;16.25;9.15;;;8.50;99.90;;;;;;5035504;28;20029;-89
2023/02/03 05:06:02;;;;;;;15.18;9.10;;;8.50;99.90;;;;;;5035115;28;20554;-89
2023/02/03 05:08:28;;;;;;;14.57;8.43;;;8.50;99.90;;;;;;5035057;28;20115;-89
2023/02/03 05:10:54;;;;;;;10.77;7.70;;;8.50;99.90;;;;;;5034874;28;20460;-89
2023/02/03 05:13:20;;;;;;;13.48;8.07;;;8.50;99.90;;;;;;5035513;28;20083;-89
2023/02/03 05:15:45;;;;;;;10.52;7.03;;;8.50;99.90;;;;;;5035093;28;20363;-89
2023/02/03 05:18:11;;;;;;;13.98;6.88;;;8.50;99.90;;;;;;5054392;28;20075;-88
2023/02/03 05:20:37;;;;;;;10.40;7.55;;;8.50;99.90;;;;;;5039370;28;20109;-89
2023/02/03 05:23:03;;;;;;;13.95;7.10;;;8.50;99.90;;;;;;5036990;28;20370;-90
2023/02/03 05:25:29;;;;;;;12.60;7.95;;;8.50;99.90;;;;;;5053105;28;20021;-90
2023/02/03 05:27:54;;;;;;;13.25;8.45;;;8.50;99.90;;;;;;5035269;28;20082;-90
2023/02/03 05:30:20;;;;;;;12.45;8.48;;;8.60;99.90;;;;;;5052842;28;20108;-89
2023/02/03 05:32:47;;;;;;;15.73;8.35;;;8.60;99.90;;;;;;5052592;28;20032;-89
2023/02/03 05:35:12;;;;;;;13.48;9.07;;;8.60;99.90;;;;;;5053352;28;20052;-90
2023/02/03 05:37:38;;;;;;;16.38;8.43;;;8.60;99.90;;;;;;5035009;28;20493;-89
2023/02/03 05:42:48;;;;;;;11.63;7.45;;;8.60;99.90;;;;;;5053356;28;20040;-90
2023/02/03 05:45:15;;;;;;;12.93;8.18;;;8.60;99.90;;;;;;5034954;28;20025;-90
2023/02/03 05:47:41;;;;;;;15.80;8.43;;;8.60;99.90;;;;;;5034802;28;20037;-89
2023/02/03 05:50:07;;;;;;;17.60;9.50;;;8.60;99.90;;;;;;5052250;28;20029;-88
2023/02/03 05:52:33;;;;;;;18.48;10.05;;;8.60;99.90;;;;;;5051544;28;20055;-90
2023/02/03 05:54:58;;;;;;;18.60;11.60;;;8.60;99.90;;;;;;5034722;28;20032;-90
2023/02/03 05:57:24;;;;;;;30.60;14.05;;;8.60;99.90;;;;;;5035077;28;20572;-91
2023/02/03 05:59:50;;;;;;;21.08;13.05;;;8.60;99.90;;;;;;5034956;28;20031;-90
2023/02/03 06:02:15;;;;;;;20.00;12.77;;;8.70;99.90;;;;;;5034972;28;20032;-90
2023/02/03 06:04:41;;;;;;;23.38;13.18;;;8.60;99.90;;;;;;5056570;28;20040;-90
2023/02/03 06:07:06;;;;;;;31.35;15.82;;;8.70;99.90;;;;;;5037006;28;20024;-90
2023/02/03 06:09:32;;;;;;;27.15;15.07;;;8.70;99.90;;;;;;5036090;28;20118;-89
2023/02/03 06:11:58;;;;;;;23.00;13.55;;;8.60;99.90;;;;;;5038366;28;20179;-90
2023/02/03 06:14:23;;;;;;;19.05;11.27;;;8.70;99.90;;;;;;5038900;28;20363;-91
2023/02/03 06:16:49;;;;;;;21.23;11.15;;;8.70;99.90;;;;;;5038831;28;20032;-89
2023/02/03 06:19:15;;;;;;;18.05;10.60;;;8.60;99.90;;;;;;5041106;28;20033;-90
2023/02/03 06:21:40;;;;;;;20.40;10.75;;;8.60;99.90;;;;;;5044511;28;20064;-89
2023/02/03 06:24:06;;;;;;;23.23;10.85;;;8.60;99.90;;;;;;5038533;28;20052;-90
2023/02/03 06:26:32;;;;;;;18.58;9.15;;;8.60;99.90;;;;;;5038253;28;20413;-89
2023/02/03 06:28:57;;;;;;;16.50;11.38;;;8.70;99.90;;;;;;5038197;28;20021;-89
2023/02/03 06:31:23;;;;;;;17.30;9.15;;;8.70;99.90;;;;;;5038457;28;20394;-89
2023/02/03 06:33:49;;;;;;;16.23;9.05;;;8.60;99.90;;;;;;5037828;28;20025;-90
2023/02/03 06:36:14;;;;;;;18.20;9.63;;;8.70;99.90;;;;;;5038228;28;20120;-89
2023/02/03 06:38:40;;;;;;;12.82;7.60;;;8.70;99.90;;;;;;5056524;28;20052;-89
2023/02/03 06:41:05;;;;;;;15.52;8.80;;;8.70;99.90;;;;;;5039530;28;20025;-89
2023/02/03 06:43:31;;;;;;;14.05;8.90;;;8.70;99.90;;;;;;5038776;28;20024;-90
2023/02/03 06:45:58;;;;;;;13.50;8.25;;;8.70;99.90;;;;;;5038979;28;20017;-89
2023/02/03 06:48:23;;;;;;;14.15;8.48;;;8.70;99.90;;;;;;5038083;28;20025;-91
2023/02/03 06:50:49;;;;;;;16.65;7.28;;;8.70;99.90;;;;;;5037560;28;20482;-89
2023/02/03 06:53:15;;;;;;;12.27;6.93;;;8.70;99.90;;;;;;5055477;28;20045;-91
2023/02/03 06:55:41;;;;;;;14.25;8.00;;;8.70;99.90;;;;;;5040262;28;20036;-91
2023/02/03 06:58:06;;;;;;;16.10;7.85;;;8.70;99.90;;;;;;5046185;28;20016;-90
2023/02/03 07:00:35;;;;;;;15.18;8.25;;;8.70;99.90;;;;;;5066022;28;20013;-89
2023/02/03 07:03:01;;;;;;;16.27;9.43;;;8.70;99.90;;;;;;5046687;28;20505;-89
2023/02/03 07:05:27;;;;;;;17.00;9.02;;;8.70;99.90;;;;;;5049195;28;20026;-89
2023/02/03 07:07:53;;;;;;;15.43;9.32;;;8.70;99.90;;;;;;5064085;28;20099;-91
2023/02/03 07:10:19;;;;;;;15.57;9.13;;;8.70;99.90;;;;;;5048581;28;20098;-90
2023/02/03 07:12:45;;;;;;;17.00;9.57;;;8.70;99.90;;;;;;5046327;28;20032;-89
2023/02/03 07:15:11;;;;;;;15.00;9.07;;;8.70;99.90;;;;;;5055192;28;20021;-90
2023/02/03 07:17:37;;;;;;;13.65;8.25;;;8.70;99.90;;;;;;5054028;28;21076;-90
2023/02/03 07:20:03;;;;;;;12.70;7.55;;;8.70;99.90;;;;;;5054217;28;20498;-89
2023/02/03 07:22:29;;;;;;;14.65;9.23;;;8.70;99.90;;;;;;5036032;28;20013;-89
2023/02/03 07:24:55;;;;;;;13.40;8.57;;;8.70;99.90;;;;;;5054175;28;20029;-88
2023/02/03 07:27:20;;;;;;;14.45;8.75;;;8.70;99.90;;;;;;5037418;28;20052;-89
2023/02/03 07:29:46;;;;;;;16.23;9.55;;;8.70;99.90;;;;;;5036972;28;20118;-90
2023/02/03 07:32:12;;;;;;;15.05;7.80;;;8.70;99.90;;;;;;5053739;28;20052;-90
2023/02/03 07:34:38;;;;;;;14.60;9.43;;;8.70;99.90;;;;;;5053936;28;20045;-91
2023/02/03 07:37:03;;;;;;;15.02;9.98;;;8.70;99.90;;;;;;5036661;28;20094;-90
2023/02/03 07:39:29;;;;;;;17.40;10.70;;;8.70;99.90;;;;;;5036939;28;20458;-90
2023/02/03 07:41:55;;;;;;;20.13;10.43;;;8.70;99.90;;;;;;5036964;28;20021;-90
2023/02/03 07:44:20;;;;;;;20.92;11.13;;;8.70;99.90;;;;;;5036370;28;20028;-91
2023/02/03 07:46:46;;;;;;;17.85;10.90;;;8.80;99.90;;;;;;5053612;28;20083;-89
2023/02/03 07:49:12;;;;;;;17.40;11.90;;;8.70;99.90;;;;;;5036148;28;20033;-88
2023/02/03 07:51:38;;;;;;;15.27;10.60;;;8.70;99.90;;;;;;5052836;28;20406;-91
2023/02/03 07:54:04;;;;;;;12.38;7.95;;;8.70;99.90;;;;;;5053725;28;20021;-87
2023/02/03 07:56:31;;;;;;;16.33;10.13;;;8.80;99.90;;;;;;5037529;28;20482;-88
2023/02/03 07:58:58;;;;;;;15.13;9.50;;;8.70;99.90;;;;;;5036875;28;20028;-90
2023/02/03 08:01:24;;;;;;;12.60;8.13;;;8.70;99.90;;;;;;5037127;28;20029;-90
2023/02/03 08:03:50;;;;;;;11.35;8.43;;;8.70;99.90;;;;;;5036730;28;20125;-90
2023/02/03 08:06:16;;;;;;;12.07;8.45;;;8.70;99.90;;;;;;5036389;28;20138;-90
2023/02/03 08:08:42;;;;;;;13.13;8.93;;;8.70;99.90;;;;;;5036071;28;20025;-89
2023/02/03 08:11:08;;;;;;;13.43;8.50;;;8.70;99.90;;;;;;5037415;28;20036;-89
2023/02/03 08:13:34;;;;;;;8.55;6.25;;;8.70;99.90;;;;;;5035863;28;20466;-89
2023/02/03 08:15:59;;;;;;;9.82;7.00;;;8.70;99.90;;;;;;5036356;28;20064;-89
2023/02/03 08:18:25;;;;;;;8.55;5.70;;;8.70;99.90;;;;;;5053730;28;20013;-91
2023/02/03 08:20:51;;;;;;;8.93;6.00;;;8.70;99.90;;;;;;5034640;28;20021;-88
2023/02/03 08:23:16;;;;;;;5.97;2.97;;;8.70;99.90;;;;;;5052119;28;20422;-88
2023/02/03 08:25:42;;;;;;;6.25;4.35;;;8.70;99.90;;;;;;5052338;28;20029;-91
2023/02/03 08:28:08;;;;;;;5.05;3.60;;;8.80;99.90;;;;;;5035257;28;20021;-90
2023/02/03 08:30:34;;;;;;;6.18;4.50;;;8.70;99.90;;;;;;5035836;28;20039;-90
2023/02/03 08:33:00;;;;;;;5.38;4.15;;;8.80;99.90;;;;;;5035915;28;20021;-89
2023/02/03 08:35:26;;;;;;;5.82;4.45;;;8.80;99.90;;;;;;5036562;28;20025;-90
2023/02/03 08:37:52;;;;;;;7.00;4.45;;;8.80;99.90;;;;;;5036020;28;20063;-90
2023/02/03 08:40:20;;;;;;;5.35;3.75;;;8.80;99.90;;;;;;5035573;28;20062;-89
2023/02/03 08:42:46;;;;;;;6.13;3.40;;;8.80;99.90;;;;;;5035683;28;20040;-90
2023/02/03 08:45:12;;;;;;;3.47;2.65;;;8.80;99.90;;;;;;5053361;28;20025;-90
2023/02/03 08:47:38;;;;;;;2.20;1.73;;;8.80;99.90;;;;;;5035707;28;20504;-90
2023/02/03 08:50:06;;;;;;;2.60;2.30;;;8.80;99.90;;;;;;5028271;28;20112;-90
2023/02/03 08:52:32;;;;;;;6.18;2.40;;;8.80;99.90;;;;;;5051670;28;20174;-91
2023/02/03 08:54:57;;;;;;;4.97;2.53;;;8.80;99.90;;;;;;5033851;28;20107;-89
2023/02/03 08:57:23;;;;;;;2.75;1.90;;;8.80;99.90;;;;;;5052295;28;20474;-90
2023/02/03 08:59:50;;;;;;;3.42;2.45;;;8.80;99.90;;;;;;5033664;28;20585;-89
2023/02/03 09:02:17;;;;;;;2.78;2.55;;;8.80;99.90;;;;;;5036080;28;20040;-90
2023/02/03 09:04:44;;;;;;;4.00;2.50;;;8.90;99.90;;;;;;5060872;28;20028;-89
2023/02/03 09:07:10;;;;;;;2.88;2.58;;;8.90;99.90;;;;;;5044313;28;20016;-90
2023/02/03 09:09:36;;;;;;;5.53;2.13;;;8.90;99.90;;;;;;5060923;28;20051;-91
2023/02/03 09:12:04;;;;;;;3.60;2.15;;;8.90;99.90;;;;;;5043053;28;20044;-90
2023/02/03 09:14:31;;;;;;;6.68;2.72;;;8.90;99.90;;;;;;5038920;28;20044;-90
2023/02/03 09:16:58;;;;;;;5.63;2.35;;;8.90;99.90;;;;;;5037481;28;20021;-90
2023/02/03 09:19:24;;;;;;;3.63;2.30;;;8.90;99.90;;;;;;5035600;28;20120;-89
2023/02/03 09:21:49;;;;;;;2.70;2.10;;;8.90;99.90;;;;;;5039663;28;20030;-90
2023/02/03 09:24:16;;;;;;;3.75;2.33;;;9.00;99.90;;;;;;5041385;28;20036;-90
2023/02/03 09:26:42;;;;;;;4.47;2.63;;;8.90;99.90;;;;;;5041347;28;20063;-91
2023/02/03 09:29:08;;;;;;;3.33;2.55;;;8.90;99.90;;;;;;5042376;28;20073;-90
2023/02/03 09:31:34;;;;;;;3.20;2.30;;;9.00;99.90;;;;;;5037418;28;20556;-88
2023/02/03 09:36:52;;;;;;;2.85;2.45;;;9.00;99.90;;;;;;5108261;27;20503;-89
2023/02/03 09:39:18;;;;;;;3.67;2.28;;;9.00;99.90;;;;;;5099727;28;20048;-89
2023/02/03 09:42:18;;;;;;;2.65;2.35;;;9.00;99.90;;;;;;5097798;28;20534;-91
2023/02/03 09:44:54;;;;;;;6.70;2.30;;;9.00;99.90;;;;;;5098838;28;20379;-90
2023/02/03 09:47:31;;;;;;;3.17;2.47;;;9.10;99.90;;;;;;5098499;28;20019;-91
2023/02/03 09:50:03;;;;;;;6.03;2.63;;;9.10;99.90;;;;;;5097659;28;20023;-91
2023/02/03 09:52:38;;;;;;;4.82;3.50;;;9.10;99.90;;;;;;5118987;27;20537;-90
2023/02/03 09:55:12;;;;;;;6.70;4.25;;;9.10;99.90;;;;;;5076616;28;20036;-89
2023/02/03 09:58:04;;;;;;;6.90;4.85;;;9.10;99.90;;;;;;5110429;28;20386;-91
2023/02/03 10:00:40;;;;;;;6.75;5.10;;;9.10;99.90;;;;;;5076082;28;20149;-90
2023/02/03 10:03:39;;;;;;;7.43;4.25;;;9.10;99.90;;;;;;5082254;28;20031;-91
2023/02/03 10:06:30;;;;;;;8.65;4.13;;;9.10;99.90;;;;;;5078515;28;20021;-90
2023/02/03 10:09:17;;;;;;;6.18;4.75;;;9.10;99.90;;;;;;5108711;28;20017;-89
2023/02/03 10:12:20;;;;;;;4.20;2.65;;;9.10;99.90;;;;;;5112240;28;20140;-89
2023/02/03 10:15:07;;;;;;;8.75;4.95;;;9.10;99.90;;;;;;5079093;28;20032;-90
2023/02/03 10:17:49;;;;;;;6.40;4.55;;;9.10;99.90;;;;;;5114943;28;20119;-90
2023/02/03 10:20:20;;;;;;;5.95;4.57;;;9.10;99.90;;;;;;5088201;28;20025;-90
2023/02/03 10:22:53;;;;;;;7.53;4.93;;;9.20;99.90;;;;;;5087304;28;20028;-90
2023/02/03 10:25:24;;;;;;;5.60;4.47;;;9.20;99.90;;;;;;5089378;28;20028;-90
2023/02/03 10:27:57;;;;;;;7.10;4.72;;;9.20;99.90;;;;;;5088073;28;20031;-90
2023/02/03 10:30:25;;;;;;;6.07;4.60;;;9.20;99.90;;;;;;5088202;28;20028;-90
2023/02/03 10:32:59;;;;;;;5.45;4.22;;;9.20;99.90;;;;;;5088668;28;20032;-90
2023/02/03 10:35:38;;;;;;;5.57;4.03;;;9.30;99.90;;;;;;5087585;28;20040;-90
2023/02/03 10:38:08;;;;;;;6.35;4.30;;;9.30;99.90;;;;;;5088994;28;20067;-91
2023/02/03 10:40:34;;;;;;;5.95;3.85;;;9.30;99.90;;;;;;5087545;28;20481;-90
2023/02/03 10:45:44;;;;;;;5.13;3.35;;;9.40;99.90;;;;;;5088797;28;20519;-91
2023/02/03 10:48:16;;;;;;;4.43;3.20;;;9.40;99.90;;;;;;5071686;28;20016;-89
2023/02/03 10:50:47;;;;;;;5.05;3.22;;;9.50;99.90;;;;;;5054036;28;20043;-90
2023/02/03 10:53:19;;;;;;;;;;;9.60;99.90;;;;;;5054816;28;20024;-91
2023/02/03 10:55:47;;;;;;;4.50;2.40;;;9.60;99.90;;;;;;5056477;28;19916;-91
2023/02/03 10:58:28;;;;;;;3.85;2.30;;;9.60;99.90;;;;;;5065034;28;20021;-90
2023/02/03 11:01:05;;;;;;;5.63;2.15;;;9.60;99.90;;;;;;5094046;28;20400;-89
2023/02/03 11:03:30;;;;;;;4.80;2.30;;;9.70;99.90;;;;;;5096122;28;20068;-90
2023/02/03 11:06:07;;;;;;;4.78;2.72;;;9.70;99.90;;;;;;5073557;28;20060;-89
2023/02/03 11:08:36;;;;;;;5.45;2.65;;;9.60;99.90;;;;;;5074703;28;20119;-90
2023/02/03 11:11:13;;;;;;;6.50;2.45;;;9.70;99.90;;;;;;5071114;28;20504;-91
2023/02/03 11:13:39;;;;;;;3.15;2.33;;;9.70;99.90;;;;;;5065231;28;20116;-90
2023/02/03 11:16:23;;;;;;;4.80;2.55;;;9.80;99.90;;;;;;5059481;28;20044;-90
2023/02/03 11:19:10;;;;;;;3.40;1.90;;;9.80;99.90;;;;;;5054470;28;20029;-91
2023/02/03 11:21:41;;;;;;;2.50;1.60;;;9.90;99.90;;;;;;5051947;28;20040;-91
2023/02/03 11:24:20;;;;;;;1.73;1.63;;;9.90;99.90;;;;;;5054001;28;20191;-92
2023/02/03 11:26:57;;;;;;;1.83;1.20;;;10.00;99.90;;;;;;5064076;28;20024;-91
2023/02/03 11:29:29;;;;;;;4.78;1.60;;;10.10;99.90;;;;;;5063371;28;20025;-91
2023/02/03 11:32:00;;;;;;;1.73;1.40;;;10.00;99.90;;;;;;5062087;28;20028;-93
2023/02/03 11:34:36;;;;;;;2.17;1.20;;;10.10;99.90;;;;;;5061384;28;20021;-91
2023/02/03 11:37:26;;;;;;;7.00;1.15;;;10.10;99.90;;;;;;5093584;28;20025;-90
2023/02/03 11:40:09;;;;;;;2.88;1.27;;;10.20;99.90;;;;;;5095855;28;20052;-92
2023/02/03 11:42:42;;;;;;;1.30;1.10;;;10.30;99.90;;;;;;5060083;28;20033;-89
2023/02/03 11:45:17;;;;;;;3.70;1.30;;;10.40;99.90;;;;;;5060087;28;20056;-91
2023/02/03 11:47:47;;;;;;;1.83;1.10;;;10.40;99.90;;;;;;5060309;28;20079;-91
2023/02/03 11:50:24;;;;;;;2.80;1.20;;;10.50;99.90;;;;;;5062940;28;20020;-90
2023/02/03 11:53:22;;;;;;;0.93;0.70;;;10.60;99.90;;;;;;5060992;28;20121;-91
2023/02/03 11:56:12;;;;;;;0.65;0.60;;;10.60;99.90;;;;;;5015438;28;20047;-91
2023/02/03 11:58:55;;;;;;;1.85;0.80;;;10.60;99.90;;;;;;5060002;28;20040;-90
2023/02/03 12:01:37;;;;;;;0.70;0.60;;;10.70;99.90;;;;;;5092717;28;20021;-90
2023/02/03 12:04:37;;;;;;;0.95;0.60;;;10.70;99.90;;;;;;5090812;28;20470;-91
2023/02/03 12:07:18;;;;;;;0.73;0.63;;;10.70;99.90;;;;;;5094527;28;20029;-91
2023/02/03 12:09:54;;;;;;;1.15;0.60;;;10.60;99.90;;;;;;5069590;28;20040;-90
2023/02/03 12:12:50;;;;;;;2.30;0.50;;;10.50;99.90;;;;;;5073423;28;20044;-91
2023/02/03 12:15:54;;;;;;;1.10;0.55;;;10.50;99.90;;;;;;5064439;28;20033;-88
2023/02/03 12:18:27;;;;;;;0.80;0.77;;;10.40;99.90;;;;;;5066978;28;20062;-91
2023/02/03 12:21:04;;;;;;;3.70;0.47;;;10.40;99.90;;;;;;5069092;28;20100;-90
2023/02/03 12:23:37;;;;;;;0.38;0.38;;;10.40;99.90;;;;;;5057822;28;20025;-90
2023/02/03 12:26:42;;;;;;;0.63;0.63;;;10.30;99.90;;;;;;5047671;28;20033;-91
2023/02/03 12:29:22;;;;;;;2.25;0.52;;;10.30;99.90;;;;;;5051815;28;20051;-89
2023/02/03 12:32:11;;;;;;;2.28;0.50;;;10.30;99.90;;;;;;5054796;28;20025;-90
2023/02/03 12:34:43;;;;;;;0.70;0.70;;;10.20;99.90;;;;;;5041446;28;20032;-91
2023/02/03 12:37:13;;;;;;;1.52;0.52;;;10.20;99.90;;;;;;5051747;28;20028;-91
2023/02/03 12:39:57;;;;;;;0.88;0.68;;;10.20;99.90;;;;;;5045074;28;20018;-91
2023/02/03 12:42:36;;;;;;;0.98;0.65;;;10.20;99.90;;;;;;5046664;28;20029;-91
2023/02/03 12:45:13;;;;;;;1.85;1.13;;;10.10;99.90;;;;;;5064678;28;20064;-91
2023/02/03 12:48:10;;;;;;;2.45;1.00;;;10.10;99.90;;;;;;5053143;28;20035;-92
2023/02/03 12:50:48;;;;;;;2.03;0.90;;;10.10;99.90;;;;;;5052877;28;20029;-90
2023/02/03 12:53:26;;;;;;;0.98;0.70;;;10.10;99.90;;;;;;5052556;28;20028;-90
2023/02/03 12:56:12;;;;;;;1.70;1.10;;;10.00;99.90;;;;;;5052174;28;20033;-90
2023/02/03 12:59:05;;;;;;;2.20;0.70;;;10.00;99.90;;;;;;5087692;28;20477;-91
2023/02/03 13:01:36;;;;;;;1.25;0.80;;;10.00;99.90;;;;;;5088943;28;20124;-90
2023/02/03 13:04:05;;;;;;;2.80;1.40;;;10.00;99.90;;;;;;5056269;28;20024;-90
2023/02/03 13:06:56;;;;;;;1.45;0.85;;;10.00;99.90;;;;;;5060371;28;20017;-90
2023/02/03 13:09:34;;;;;;;3.97;1.10;;;10.10;99.90;;;;;;5054797;28;20496;-91
2023/02/03 13:12:18;;;;;;;3.15;1.13;;;10.00;99.90;;;;;;5052489;28;20036;-90
2023/02/03 13:14:54;;;;;;;3.78;1.15;;;10.10;99.90;;;;;;5051807;28;20025;-90
2023/02/03 13:17:23;;;;;;;1.23;0.88;;;10.00;99.90;;;;;;5053611;28;20037;-90
2023/02/03 13:19:53;;;;;;;2.90;0.95;;;10.10;99.90;;;;;;5051742;28;20029;-91
2023/02/03 13:22:22;;;;;;;4.03;1.30;;;10.00;99.90;;;;;;5052107;28;20033;-91
2023/02/03 13:25:15;;;;;;;3.08;1.10;;;10.00;99.90;;;;;;5052213;28;20033;-89
2023/02/03 13:28:18;;;;;;;4.72;1.40;;;10.10;99.90;;;;;;5007190;28;20037;-90
2023/02/03 13:30:56;;;;;;;4.00;1.30;;;10.00;99.90;;;;;;5053230;28;20024;-90
2023/02/03 13:33:42;;;;;;;3.63;2.15;;;10.00;99.90;;;;;;5060310;28;20094;-89
2023/02/03 13:36:39;;;;;;;2.95;1.20;;;10.00;99.90;;;;;;5061814;28;20051;-89
2023/02/03 13:39:39;;;;;;;4.10;1.48;;;10.00;99.90;;;;;;5054447;28;20028;-89
2023/02/03 13:42:17;;;;;;;2.92;1.20;;;10.00;99.90;;;;;;5051203;28;20033;-90
2023/02/03 13:44:45;;;;;;;5.68;2.05;;;10.00;99.90;;;;;;5059997;28;20040;-91